sensor_id;sensor_type;location;lat;lon;timestamp;temperature;humidity
13699;DHT22;6921;53.642;9.956;2023-04-01T06:18:13;7.50;99.90
13699;DHT22;6921;53.642;9.956;2023-04-01T07:12:21;7.00;99.90
13699;DHT22;6921;53.642;9.956;2023-04-01T07:41:56;7.10;99.90
13699;DHT22;6921;53.642;9.956;2023-04-01T11:15:23;7.50;99.90
13699;DHT22;6921;53.642;9.956;2023-04-01T13:02:01;6.60;99.90
13699;DHT22;6921;53.642;9.956;2023-04-01T13:48:33;6.40;99.90
13699;DHT22;6921;53.642;9.956;2023-04-01T13:51:01;6.30;99.90
13699;DHT22;6921;53.642;9.956;2023-04-01T13:55:30;6.30;99.90
13699;DHT22;6921;53.642;9.956;2023-04-01T13:58:00;6.20;99.90
13699;DHT22;6921;53.642;9.956;2023-04-01T14:02:36;6.10;99.90
13699;DHT22;6921;53.642;9.956;2023-04-01T14:05:09;6.20;99.90
13699;DHT22;6921;53.642;9.956;2023-04-01T14:16:22;6.30;99.90
13699;DHT22;6921;53.642;9.956;2023-04-01T14:18:56;6.30;99.90
13699;DHT22;6921;53.642;9.956;2023-04-01T14:21:33;6.30;99.90
13699;DHT22;6921;53.642;9.956;2023-04-01T14:28:25;6.20;99.90
13699;DHT22;6921;53.642;9.956;2023-04-01T14:30:41;6.10;99.90
13699;DHT22;6921;53.642;9.956;2023-04-01T14:32:54;6.20;99.90
13699;DHT22;6921;53.642;9.956;2023-04-01T14:39:43;6.20;99.90
13699;DHT22;6921;53.642;9.956;2023-04-01T14:42:02;6.20;99.90
13699;DHT22;6921;53.642;9.956;2023-04-01T14:57:36;6.00;99.90
13699;DHT22;6921;53.642;9.956;2023-04-01T14:59:48;6.10;99.90
13699;DHT22;6921;53.642;9.956;2023-04-01T15:01:57;6.40;99.90
13699;DHT22;6921;53.642;9.956;2023-04-01T15:04:26;5.90;99.90
13699;DHT22;6921;53.642;9.956;2023-04-01T15:07:01;6.70;99.90
13699;DHT22;6921;53.642;9.956;2023-04-01T15:09:13;6.10;99.90
13699;DHT22;6921;53.642;9.956;2023-04-01T15:11:29;7.50;99.90
13699;DHT22;6921;53.642;9.956;2023-04-01T15:13:49;5.90;99.90
13699;DHT22;6921;53.642;9.956;2023-04-01T15:16:06;6.00;99.90
13699;DHT22;6921;53.642;9.956;2023-04-01T15:18:18;5.90;99.90
13699;DHT22;6921;53.642;9.956;2023-04-01T15:20:52;5.80;99.90
13699;DHT22;6921;53.642;9.956;2023-04-01T15:23:23;6.10;99.90
13699;DHT22;6921;53.642;9.956;2023-04-01T15:27:43;5.70;99.90
13699;DHT22;6921;53.642;9.956;2023-04-01T15:32:24;6.00;99.90
13699;DHT22;6921;53.642;9.956;2023-04-01T15:34:35;5.70;99.90
13699;DHT22;6921;53.642;9.956;2023-04-01T15:36:45;7.00;99.90
13699;DHT22;6921;53.642;9.956;2023-04-01T15:38:58;5.80;99.90
13699;DHT22;6921;53.642;9.956;2023-04-01T15:41:09;7.00;99.90
13699;DHT22;6921;53.642;9.956;2023-04-01T15:43:25;5.90;99.90
13699;DHT22;6921;53.642;9.956;2023-04-01T15:45:43;6.20;99.90
13699;DHT22;6921;53.642;9.956;2023-04-01T15:47:58;5.60;99.90
13699;DHT22;6921;53.642;9.956;2023-04-01T15:52:53;5.70;99.90
13699;DHT22;6921;53.642;9.956;2023-04-01T15:55:13;5.30;99.90
13699;DHT22;6921;53.642;9.956;2023-04-01T15:57:25;6.00;99.90
13699;DHT22;6921;53.642;9.956;2023-04-01T15:59:47;5.70;99.90
13699;DHT22;6921;53.642;9.956;2023-04-01T16:01:59;5.80;99.90
13699;DHT22;6921;53.642;9.956;2023-04-01T16:04:38;5.70;99.90
13699;DHT22;6921;53.642;9.956;2023-04-01T16:07:03;5.60;99.90
13699;DHT22;6921;53.642;9.956;2023-04-01T16:09:26;5.60;99.90
13699;DHT22;6921;53.642;9.956;2023-04-01T16:11:39;5.60;99.90
13699;DHT22;6921;53.642;9.956;2023-04-01T16:13:54;5.60;99.90
13699;DHT22;6921;53.642;9.956;2023-04-01T16:16:07;5.60;99.90
13699;DHT22;6921;53.642;9.956;2023-04-01T16:18:32;5.60;99.90
13699;DHT22;6921;53.642;9.956;2023-04-01T16:20:44;5.70;99.90
13699;DHT22;6921;53.642;9.956;2023-04-01T16:22:55;5.50;99.90
13699;DHT22;6921;53.642;9.956;2023-04-01T16:25:19;5.60;99.90
13699;DHT22;6921;53.642;9.956;2023-04-01T16:27:29;6.00;99.90
13699;DHT22;6921;53.642;9.956;2023-04-01T16:29:40;7.20;99.90
13699;DHT22;6921;53.642;9.956;2023-04-01T16:31:51;5.50;99.90
13699;DHT22;6921;53.642;9.956;2023-04-01T16:34:01;5.60;99.90
13699;DHT22;6921;53.642;9.956;2023-04-01T16:36:10;5.50;99.90
13699;DHT22;6921;53.642;9.956;2023-04-01T16:38:22;5.40;99.90
13699;DHT22;6921;53.642;9.956;2023-04-01T16:40:41;5.40;99.90
13699;DHT22;6921;53.642;9.956;2023-04-01T16:42:49;5.40;99.90
13699;DHT22;6921;53.642;9.956;2023-04-01T16:44:57;5.30;99.90
13699;DHT22;6921;53.642;9.956;2023-04-01T16:47:08;5.20;99.90
13699;DHT22;6921;53.642;9.956;2023-04-01T16:49:32;5.30;99.90
13699;DHT22;6921;53.642;9.956;2023-04-01T16:51:45;5.30;99.90
13699;DHT22;6921;53.642;9.956;2023-04-01T16:53:53;5.20;99.90
13699;DHT22;6921;53.642;9.956;2023-04-01T16:56:12;5.20;99.90
13699;DHT22;6921;53.642;9.956;2023-04-01T16:58:23;5.20;99.90
13699;DHT22;6921;53.642;9.956;2023-04-01T17:00:29;5.20;99.90
13699;DHT22;6921;53.642;9.956;2023-04-01T17:02:37;5.50;99.90
13699;DHT22;6921;53.642;9.956;2023-04-01T17:04:44;5.30;99.90
13699;DHT22;6921;53.642;9.956;2023-04-01T17:06:52;5.40;99.90
13699;DHT22;6921;53.642;9.956;2023-04-01T17:15:40;5.50;99.90
13699;DHT22;6921;53.642;9.956;2023-04-01T17:17:50;5.20;99.90
13699;DHT22;6921;53.642;9.956;2023-04-01T17:22:31;5.30;99.90
13699;DHT22;6921;53.642;9.956;2023-04-01T17:24:47;4.60;99.90
13699;DHT22;6921;53.642;9.956;2023-04-01T17:27:02;5.10;99.90
13699;DHT22;6921;53.642;9.956;2023-04-01T17:29:15;4.60;99.90
13699;DHT22;6921;53.642;9.956;2023-04-01T17:31:37;5.00;99.90
13699;DHT22;6921;53.642;9.956;2023-04-01T17:44:47;5.20;99.90
13699;DHT22;6921;53.642;9.956;2023-04-01T18:07:04;5.00;99.90
13699;DHT22;6921;53.642;9.956;2023-04-01T18:16:15;4.80;99.90
13699;DHT22;6921;53.642;9.956;2023-04-01T18:18:37;4.80;99.90
13699;DHT22;6921;53.642;9.956;2023-04-01T18:20:54;4.80;99.90
13699;DHT22;6921;53.642;9.956;2023-04-01T18:23:00;4.80;99.90
13699;DHT22;6921;53.642;9.956;2023-04-01T18:25:14;4.70;99.90
13699;DHT22;6921;53.642;9.956;2023-04-01T18:27:23;4.60;99.90
13699;DHT22;6921;53.642;9.956;2023-04-01T18:29:35;4.60;99.90
13699;DHT22;6921;53.642;9.956;2023-04-01T18:31:43;4.50;99.90
13699;DHT22;6921;53.642;9.956;2023-04-01T18:33:56;4.60;99.90
13699;DHT22;6921;53.642;9.956;2023-04-01T18:36:09;4.60;99.90
13699;DHT22;6921;53.642;9.956;2023-04-01T18:38:18;4.60;99.90
13699;DHT22;6921;53.642;9.956;2023-04-01T18:40:29;4.60;99.90
13699;DHT22;6921;53.642;9.956;2023-04-01T18:42:43;4.50;99.90
13699;DHT22;6921;53.642;9.956;2023-04-01T18:44:52;6.60;99.90
13699;DHT22;6921;53.642;9.956;2023-04-01T18:47:05;4.40;99.90
13699;DHT22;6921;53.642;9.956;2023-04-01T18:49:16;4.40;99.90
13699;DHT22;6921;53.642;9.956;2023-04-01T18:51:26;4.50;99.90
13699;DHT22;6921;53.642;9.956;2023-04-01T18:53:39;4.50;99.90
13699;DHT22;6921;53.642;9.956;2023-04-01T18:55:47;5.80;99.90
13699;DHT22;6921;53.642;9.956;2023-04-01T18:57:53;4.40;99.90
13699;DHT22;6921;53.642;9.956;2023-04-01T19:00:05;4.30;99.90
13699;DHT22;6921;53.642;9.956;2023-04-01T19:02:21;4.30;99.90
13699;DHT22;6921;53.642;9.956;2023-04-01T19:04:33;4.40;99.90
13699;DHT22;6921;53.642;9.956;2023-04-01T19:06:45;4.30;99.90
13699;DHT22;6921;53.642;9.956;2023-04-01T19:08:52;4.30;99.90
13699;DHT22;6921;53.642;9.956;2023-04-01T19:11:04;4.30;99.90
13699;DHT22;6921;53.642;9.956;2023-04-01T19:13:17;4.30;99.90
13699;DHT22;6921;53.642;9.956;2023-04-01T19:15:33;4.40;99.90
13699;DHT22;6921;53.642;9.956;2023-04-01T19:17:47;4.30;99.90
13699;DHT22;6921;53.642;9.956;2023-04-01T19:19:56;4.70;99.90
13699;DHT22;6921;53.642;9.956;2023-04-01T19:22:18;4.20;99.90
13699;DHT22;6921;53.642;9.956;2023-04-01T19:25:10;4.30;99.90
13699;DHT22;6921;53.642;9.956;2023-04-01T19:27:27;4.30;99.90
13699;DHT22;6921;53.642;9.956;2023-04-01T19:29:47;4.20;99.90
13699;DHT22;6921;53.642;9.956;2023-04-01T19:32:01;4.10;99.90
13699;DHT22;6921;53.642;9.956;2023-04-01T19:34:22;4.00;99.90
13699;DHT22;6921;53.642;9.956;2023-04-01T19:36:33;4.10;99.90
13699;DHT22;6921;53.642;9.956;2023-04-01T19:38:41;4.10;99.90
13699;DHT22;6921;53.642;9.956;2023-04-01T19:40:54;4.00;99.90
13699;DHT22;6921;53.642;9.956;2023-04-01T19:43:03;4.00;99.90
13699;DHT22;6921;53.642;9.956;2023-04-01T19:45:26;4.00;99.90
13699;DHT22;6921;53.642;9.956;2023-04-01T19:47:45;3.90;99.90
13699;DHT22;6921;53.642;9.956;2023-04-01T19:49:56;4.10;99.90
13699;DHT22;6921;53.642;9.956;2023-04-01T19:52:08;3.70;99.90
13699;DHT22;6921;53.642;9.956;2023-04-01T19:54:25;4.10;99.90
13699;DHT22;6921;53.642;9.956;2023-04-01T19:56:38;4.10;99.90
13699;DHT22;6921;53.642;9.956;2023-04-01T19:58:47;3.60;99.90
13699;DHT22;6921;53.642;9.956;2023-04-01T20:00:54;4.00;99.90
13699;DHT22;6921;53.642;9.956;2023-04-01T20:03:05;4.00;99.90
13699;DHT22;6921;53.642;9.956;2023-04-01T20:05:30;4.00;99.90
13699;DHT22;6921;53.642;9.956;2023-04-01T20:09:53;3.80;99.90
13699;DHT22;6921;53.642;9.956;2023-04-01T20:12:01;3.80;99.90
13699;DHT22;6921;53.642;9.956;2023-04-01T20:14:15;3.90;99.90
13699;DHT22;6921;53.642;9.956;2023-04-01T20:16:23;3.30;99.90
13699;DHT22;6921;53.642;9.956;2023-04-01T20:18:47;3.60;99.90
13699;DHT22;6921;53.642;9.956;2023-04-01T20:20:55;3.50;99.90
13699;DHT22;6921;53.642;9.956;2023-04-01T20:23:23;3.60;99.90
13699;DHT22;6921;53.642;9.956;2023-04-01T20:25:32;3.50;99.90
13699;DHT22;6921;53.642;9.956;2023-04-01T20:27:41;3.40;99.90
13699;DHT22;6921;53.642;9.956;2023-04-01T20:30:00;3.40;99.90
13699;DHT22;6921;53.642;9.956;2023-04-01T20:32:26;3.30;99.90
13699;DHT22;6921;53.642;9.956;2023-04-01T20:34:52;3.30;99.90
13699;DHT22;6921;53.642;9.956;2023-04-01T20:37:16;3.20;99.90
13699;DHT22;6921;53.642;9.956;2023-04-01T20:44:34;3.10;99.90
13699;DHT22;6921;53.642;9.956;2023-04-01T20:46:48;3.00;99.90
13699;DHT22;6921;53.642;9.956;2023-04-01T20:51:39;3.00;99.90
13699;DHT22;6921;53.642;9.956;2023-04-01T20:53:56;2.90;99.90
13699;DHT22;6921;53.642;9.956;2023-04-01T20:56:28;2.90;99.90
13699;DHT22;6921;53.642;9.956;2023-04-01T20:58:42;3.10;99.90
13699;DHT22;6921;53.642;9.956;2023-04-01T21:00:55;3.10;99.90
13699;DHT22;6921;53.642;9.956;2023-04-01T21:03:18;2.80;99.90
13699;DHT22;6921;53.642;9.956;2023-04-01T21:05:43;2.80;99.90
13699;DHT22;6921;53.642;9.956;2023-04-01T21:07:52;2.80;99.90
13699;DHT22;6921;53.642;9.956;2023-04-01T21:10:18;5.30;99.90
13699;DHT22;6921;53.642;9.956;2023-04-01T21:12:30;2.90;99.90
13699;DHT22;6921;53.642;9.956;2023-04-01T21:14:54;2.70;99.90
13699;DHT22;6921;53.642;9.956;2023-04-01T21:17:07;3.00;99.90
13699;DHT22;6921;53.642;9.956;2023-04-01T21:19:26;2.60;99.90
13699;DHT22;6921;53.642;9.956;2023-04-01T21:21:47;2.70;99.90
13699;DHT22;6921;53.642;9.956;2023-04-01T21:24:23;2.70;99.90
13699;DHT22;6921;53.642;9.956;2023-04-01T21:26:47;2.60;99.90
13699;DHT22;6921;53.642;9.956;2023-04-01T21:29:25;2.90;99.90
13699;DHT22;6921;53.642;9.956;2023-04-01T21:31:53;2.50;99.90
13699;DHT22;6921;53.642;9.956;2023-04-01T21:34:34;3.50;99.90
13699;DHT22;6921;53.642;9.956;2023-04-01T21:36:51;2.50;99.90
13699;DHT22;6921;53.642;9.956;2023-04-01T21:39:18;2.50;99.90
13699;DHT22;6921;53.642;9.956;2023-04-01T21:41:33;2.50;99.90
13699;DHT22;6921;53.642;9.956;2023-04-01T21:44:03;2.50;99.90
13699;DHT22;6921;53.642;9.956;2023-04-01T21:49:05;2.40;99.90
13699;DHT22;6921;53.642;9.956;2023-04-01T21:59:31;2.40;99.90
13699;DHT22;6921;53.642;9.956;2023-04-01T22:04:18;2.30;99.90
13699;DHT22;6921;53.642;9.956;2023-04-01T22:06:31;2.30;99.90
13699;DHT22;6921;53.642;9.956;2023-04-01T22:08:43;2.20;99.90
13699;DHT22;6921;53.642;9.956;2023-04-01T22:10:54;2.20;99.90
13699;DHT22;6921;53.642;9.956;2023-04-01T22:13:06;2.20;99.90
13699;DHT22;6921;53.642;9.956;2023-04-01T22:15:24;2.20;99.90
13699;DHT22;6921;53.642;9.956;2023-04-01T22:17:35;2.20;99.90
13699;DHT22;6921;53.642;9.956;2023-04-01T22:19:48;2.10;99.90
13699;DHT22;6921;53.642;9.956;2023-04-01T22:21:59;2.10;99.90
13699;DHT22;6921;53.642;9.956;2023-04-01T22:24:10;2.10;99.90
13699;DHT22;6921;53.642;9.956;2023-04-01T22:26:24;2.00;99.90
13699;DHT22;6921;53.642;9.956;2023-04-01T22:28:35;2.30;99.90
13699;DHT22;6921;53.642;9.956;2023-04-01T22:30:46;2.10;99.90
13699;DHT22;6921;53.642;9.956;2023-04-01T22:32:56;2.10;99.90
13699;DHT22;6921;53.642;9.956;2023-04-01T22:35:07;2.00;99.90
13699;DHT22;6921;53.642;9.956;2023-04-01T22:37:19;2.00;99.90
13699;DHT22;6921;53.642;9.956;2023-04-01T22:39:45;2.10;99.90
13699;DHT22;6921;53.642;9.956;2023-04-01T22:42:02;2.20;99.90
13699;DHT22;6921;53.642;9.956;2023-04-01T22:44:18;3.00;99.90
13699;DHT22;6921;53.642;9.956;2023-04-01T22:46:44;3.50;99.90
13699;DHT22;6921;53.642;9.956;2023-04-01T22:48:55;2.10;99.90
13699;DHT22;6921;53.642;9.956;2023-04-01T22:51:04;2.40;99.90
13699;DHT22;6921;53.642;9.956;2023-04-01T22:53:17;2.00;99.90
13699;DHT22;6921;53.642;9.956;2023-04-01T22:55:25;2.10;99.90
13699;DHT22;6921;53.642;9.956;2023-04-01T22:57:39;2.20;99.90
13699;DHT22;6921;53.642;9.956;2023-04-01T22:59:48;2.00;99.90
13699;DHT22;6921;53.642;9.956;2023-04-01T23:01:58;2.00;99.90
13699;DHT22;6921;53.642;9.956;2023-04-01T23:04:04;2.40;99.90
13699;DHT22;6921;53.642;9.956;2023-04-01T23:06:14;2.00;99.90
13699;DHT22;6921;53.642;9.956;2023-04-01T23:08:41;2.80;99.90
13699;DHT22;6921;53.642;9.956;2023-04-01T23:10:52;3.60;99.90
13699;DHT22;6921;53.642;9.956;2023-04-01T23:12:58;1.90;99.90
13699;DHT22;6921;53.642;9.956;2023-04-01T23:15:12;1.90;99.90
13699;DHT22;6921;53.642;9.956;2023-04-01T23:17:34;2.20;99.90
13699;DHT22;6921;53.642;9.956;2023-04-01T23:19:44;3.10;99.90
13699;DHT22;6921;53.642;9.956;2023-04-01T23:21:53;1.80;99.90
13699;DHT22;6921;53.642;9.956;2023-04-01T23:24:06;1.90;99.90
13699;DHT22;6921;53.642;9.956;2023-04-01T23:26:17;1.90;99.90
13699;DHT22;6921;53.642;9.956;2023-04-01T23:28:39;1.90;99.90
13699;DHT22;6921;53.642;9.956;2023-04-01T23:30:49;2.00;99.90
13699;DHT22;6921;53.642;9.956;2023-04-01T23:34:59;1.90;99.90
13699;DHT22;6921;53.642;9.956;2023-04-01T23:37:05;1.90;99.90
13699;DHT22;6921;53.642;9.956;2023-04-01T23:39:21;1.90;99.90
13699;DHT22;6921;53.642;9.956;2023-04-01T23:41:27;1.90;99.90
13699;DHT22;6921;53.642;9.956;2023-04-01T23:43:36;2.00;99.90
13699;DHT22;6921;53.642;9.956;2023-04-01T23:45:41;2.00;99.90
13699;DHT22;6921;53.642;9.956;2023-04-01T23:47:47;2.00;99.90
13699;DHT22;6921;53.642;9.956;2023-04-01T23:52:03;2.00;99.90
13699;DHT22;6921;53.642;9.956;2023-04-01T23:54:14;2.00;99.90
13699;DHT22;6921;53.642;9.956;2023-04-01T23:58:26;2.00;99.90
